sensor_id;sensor_type;location;lat;lon;timestamp;temperature;humidity
12013;DHT22;6065;48.138;16.402;2023-06-24T00:02:14;20.10;99.90
12013;DHT22;6065;48.138;16.402;2023-06-24T00:04:41;20.10;99.90
12013;DHT22;6065;48.138;16.402;2023-06-24T00:07:07;20.10;99.90
12013;DHT22;6065;48.138;16.402;2023-06-24T00:09:34;20.10;99.90
12013;DHT22;6065;48.138;16.402;2023-06-24T00:12:03;20.10;99.90
12013;DHT22;6065;48.138;16.402;2023-06-24T00:14:29;20.10;99.90
12013;DHT22;6065;48.138;16.402;2023-06-24T00:16:57;20.10;99.90
12013;DHT22;6065;48.138;16.402;2023-06-24T00:19:25;20.00;99.90
12013;DHT22;6065;48.138;16.402;2023-06-24T00:21:52;20.10;99.90
12013;DHT22;6065;48.138;16.402;2023-06-24T00:24:19;20.10;99.90
12013;DHT22;6065;48.138;16.402;2023-06-24T00:26:46;20.00;99.90
12013;DHT22;6065;48.138;16.402;2023-06-24T00:29:14;20.10;99.90
12013;DHT22;6065;48.138;16.402;2023-06-24T00:31:41;20.10;99.90
12013;DHT22;6065;48.138;16.402;2023-06-24T00:34:08;20.00;99.90
12013;DHT22;6065;48.138;16.402;2023-06-24T00:36:34;20.00;99.90
12013;DHT22;6065;48.138;16.402;2023-06-24T00:39:03;19.90;99.90
12013;DHT22;6065;48.138;16.402;2023-06-24T00:41:30;20.00;99.90
12013;DHT22;6065;48.138;16.402;2023-06-24T00:43:57;19.90;99.90
12013;DHT22;6065;48.138;16.402;2023-06-24T00:46:26;19.90;99.90
12013;DHT22;6065;48.138;16.402;2023-06-24T00:48:55;19.90;99.90
12013;DHT22;6065;48.138;16.402;2023-06-24T00:51:22;19.90;99.90
12013;DHT22;6065;48.138;16.402;2023-06-24T00:53:51;19.90;99.90
12013;DHT22;6065;48.138;16.402;2023-06-24T00:56:18;19.80;99.90
12013;DHT22;6065;48.138;16.402;2023-06-24T00:58:46;19.80;99.90
12013;DHT22;6065;48.138;16.402;2023-06-24T01:01:13;19.80;99.90
12013;DHT22;6065;48.138;16.402;2023-06-24T01:03:41;19.90;99.90
12013;DHT22;6065;48.138;16.402;2023-06-24T01:06:08;19.90;99.90
12013;DHT22;6065;48.138;16.402;2023-06-24T01:08:35;19.80;99.90
12013;DHT22;6065;48.138;16.402;2023-06-24T01:11:02;19.90;99.90
12013;DHT22;6065;48.138;16.402;2023-06-24T01:13:28;19.80;99.90
12013;DHT22;6065;48.138;16.402;2023-06-24T01:15:55;19.80;99.90
12013;DHT22;6065;48.138;16.402;2023-06-24T01:18:24;19.80;99.90
12013;DHT22;6065;48.138;16.402;2023-06-24T01:20:55;19.80;99.90
12013;DHT22;6065;48.138;16.402;2023-06-24T01:23:32;19.80;99.90
12013;DHT22;6065;48.138;16.402;2023-06-24T01:29:05;19.80;99.90
12013;DHT22;6065;48.138;16.402;2023-06-24T01:31:37;19.80;99.90
12013;DHT22;6065;48.138;16.402;2023-06-24T01:34:06;19.80;99.90
12013;DHT22;6065;48.138;16.402;2023-06-24T01:36:37;19.80;99.90
12013;DHT22;6065;48.138;16.402;2023-06-24T01:39:06;19.70;99.90
12013;DHT22;6065;48.138;16.402;2023-06-24T01:41:34;19.70;99.90
12013;DHT22;6065;48.138;16.402;2023-06-24T01:44:02;19.70;99.90
12013;DHT22;6065;48.138;16.402;2023-06-24T01:46:30;19.70;99.90
12013;DHT22;6065;48.138;16.402;2023-06-24T01:48:59;19.70;99.90
12013;DHT22;6065;48.138;16.402;2023-06-24T01:51:27;19.70;99.90
12013;DHT22;6065;48.138;16.402;2023-06-24T01:53:58;19.70;99.90
12013;DHT22;6065;48.138;16.402;2023-06-24T01:56:26;19.70;99.90
12013;DHT22;6065;48.138;16.402;2023-06-24T01:58:55;19.70;99.90
12013;DHT22;6065;48.138;16.402;2023-06-24T02:01:22;19.70;99.90
12013;DHT22;6065;48.138;16.402;2023-06-24T02:03:49;19.70;99.90
12013;DHT22;6065;48.138;16.402;2023-06-24T02:06:18;19.70;99.90
12013;DHT22;6065;48.138;16.402;2023-06-24T02:08:45;19.70;99.90
12013;DHT22;6065;48.138;16.402;2023-06-24T02:11:14;19.70;99.90
12013;DHT22;6065;48.138;16.402;2023-06-24T02:13:41;19.70;99.90
12013;DHT22;6065;48.138;16.402;2023-06-24T02:16:09;19.70;99.90
12013;DHT22;6065;48.138;16.402;2023-06-24T02:18:37;19.70;99.90
12013;DHT22;6065;48.138;16.402;2023-06-24T02:21:04;19.70;99.90
12013;DHT22;6065;48.138;16.402;2023-06-24T02:23:33;19.70;99.90
12013;DHT22;6065;48.138;16.402;2023-06-24T02:26:01;19.70;99.90
12013;DHT22;6065;48.138;16.402;2023-06-24T02:28:29;19.60;99.90
12013;DHT22;6065;48.138;16.402;2023-06-24T02:30:57;19.60;99.90
12013;DHT22;6065;48.138;16.402;2023-06-24T02:33:24;19.60;99.90
12013;DHT22;6065;48.138;16.402;2023-06-24T02:35:51;19.60;99.90
12013;DHT22;6065;48.138;16.402;2023-06-24T02:38:18;19.60;99.90
12013;DHT22;6065;48.138;16.402;2023-06-24T02:40:46;19.50;99.90
12013;DHT22;6065;48.138;16.402;2023-06-24T02:43:13;19.50;99.90
12013;DHT22;6065;48.138;16.402;2023-06-24T02:45:40;19.50;99.90
12013;DHT22;6065;48.138;16.402;2023-06-24T02:48:07;19.50;99.90
12013;DHT22;6065;48.138;16.402;2023-06-24T02:50:35;19.50;99.90
12013;DHT22;6065;48.138;16.402;2023-06-24T02:53:02;19.50;99.90
12013;DHT22;6065;48.138;16.402;2023-06-24T02:55:28;19.40;99.90
12013;DHT22;6065;48.138;16.402;2023-06-24T02:57:57;19.50;99.90
12013;DHT22;6065;48.138;16.402;2023-06-24T03:00:24;19.40;99.90
12013;DHT22;6065;48.138;16.402;2023-06-24T03:02:51;19.40;99.90
12013;DHT22;6065;48.138;16.402;2023-06-24T03:05:19;19.40;99.90
12013;DHT22;6065;48.138;16.402;2023-06-24T03:07:48;19.40;99.90
12013;DHT22;6065;48.138;16.402;2023-06-24T03:10:15;19.40;99.90
12013;DHT22;6065;48.138;16.402;2023-06-24T03:12:41;19.40;99.90
12013;DHT22;6065;48.138;16.402;2023-06-24T03:15:10;19.40;99.90
12013;DHT22;6065;48.138;16.402;2023-06-24T03:17:36;19.30;99.90
12013;DHT22;6065;48.138;16.402;2023-06-24T03:20:04;19.30;99.90
12013;DHT22;6065;48.138;16.402;2023-06-24T03:22:31;19.30;99.90
12013;DHT22;6065;48.138;16.402;2023-06-24T03:24:58;19.30;99.90
12013;DHT22;6065;48.138;16.402;2023-06-24T03:27:25;19.30;99.90
12013;DHT22;6065;48.138;16.402;2023-06-24T03:29:51;19.30;99.90
12013;DHT22;6065;48.138;16.402;2023-06-24T03:32:19;19.30;99.90
12013;DHT22;6065;48.138;16.402;2023-06-24T03:34:46;19.20;99.90
12013;DHT22;6065;48.138;16.402;2023-06-24T03:37:13;19.20;99.90
12013;DHT22;6065;48.138;16.402;2023-06-24T03:39:39;19.10;99.90
12013;DHT22;6065;48.138;16.402;2023-06-24T03:42:06;19.10;99.90
12013;DHT22;6065;48.138;16.402;2023-06-24T03:44:33;19.20;99.90
12013;DHT22;6065;48.138;16.402;2023-06-24T03:47:00;19.20;99.90
12013;DHT22;6065;48.138;16.402;2023-06-24T03:49:28;19.20;99.90
12013;DHT22;6065;48.138;16.402;2023-06-24T03:51:54;19.20;99.90
12013;DHT22;6065;48.138;16.402;2023-06-24T03:54:21;19.20;99.90
12013;DHT22;6065;48.138;16.402;2023-06-24T03:56:48;19.10;99.90
12013;DHT22;6065;48.138;16.402;2023-06-24T03:59:14;19.10;99.90
12013;DHT22;6065;48.138;16.402;2023-06-24T04:01:41;19.00;99.90
12013;DHT22;6065;48.138;16.402;2023-06-24T04:04:08;18.90;99.90
12013;DHT22;6065;48.138;16.402;2023-06-24T04:06:36;18.90;99.90
12013;DHT22;6065;48.138;16.402;2023-06-24T04:09:03;18.90;99.90
12013;DHT22;6065;48.138;16.402;2023-06-24T04:11:31;18.80;99.90
12013;DHT22;6065;48.138;16.402;2023-06-24T04:13:58;18.80;99.90
12013;DHT22;6065;48.138;16.402;2023-06-24T04:16:25;18.80;99.90
12013;DHT22;6065;48.138;16.402;2023-06-24T04:18:51;18.80;99.90
12013;DHT22;6065;48.138;16.402;2023-06-24T04:21:18;18.90;99.90
12013;DHT22;6065;48.138;16.402;2023-06-24T04:23:46;18.90;99.90
12013;DHT22;6065;48.138;16.402;2023-06-24T04:26:13;18.90;99.90
12013;DHT22;6065;48.138;16.402;2023-06-24T04:28:39;18.90;99.90
12013;DHT22;6065;48.138;16.402;2023-06-24T04:31:06;18.90;99.90
12013;DHT22;6065;48.138;16.402;2023-06-24T04:33:33;18.90;99.90
12013;DHT22;6065;48.138;16.402;2023-06-24T04:36:00;18.90;99.90
12013;DHT22;6065;48.138;16.402;2023-06-24T04:38:26;18.90;99.90
12013;DHT22;6065;48.138;16.402;2023-06-24T04:40:54;18.90;99.90
12013;DHT22;6065;48.138;16.402;2023-06-24T04:43:22;18.80;99.90
12013;DHT22;6065;48.138;16.402;2023-06-24T04:45:49;18.80;99.90
12013;DHT22;6065;48.138;16.402;2023-06-24T04:48:16;18.80;99.90
12013;DHT22;6065;48.138;16.402;2023-06-24T04:50:42;18.80;99.90
12013;DHT22;6065;48.138;16.402;2023-06-24T04:53:09;18.80;99.90
12013;DHT22;6065;48.138;16.402;2023-06-24T04:55:36;18.80;99.90
12013;DHT22;6065;48.138;16.402;2023-06-24T04:58:04;18.80;99.90
12013;DHT22;6065;48.138;16.402;2023-06-24T05:00:31;18.80;99.90
12013;DHT22;6065;48.138;16.402;2023-06-24T05:02:57;18.80;99.90
12013;DHT22;6065;48.138;16.402;2023-06-24T05:05:24;18.80;99.90
12013;DHT22;6065;48.138;16.402;2023-06-24T05:07:51;18.80;99.90
12013;DHT22;6065;48.138;16.402;2023-06-24T05:10:18;18.80;99.90
12013;DHT22;6065;48.138;16.402;2023-06-24T05:12:45;18.80;99.90
12013;DHT22;6065;48.138;16.402;2023-06-24T05:15:13;18.80;99.90
12013;DHT22;6065;48.138;16.402;2023-06-24T05:17:40;18.80;99.90
12013;DHT22;6065;48.138;16.402;2023-06-24T05:20:07;18.90;99.90
12013;DHT22;6065;48.138;16.402;2023-06-24T05:22:34;18.80;99.90
12013;DHT22;6065;48.138;16.402;2023-06-24T05:25:01;18.90;99.90
12013;DHT22;6065;48.138;16.402;2023-06-24T05:27:27;18.90;99.90
12013;DHT22;6065;48.138;16.402;2023-06-24T05:29:54;18.90;99.90
12013;DHT22;6065;48.138;16.402;2023-06-24T05:32:22;18.90;99.90
12013;DHT22;6065;48.138;16.402;2023-06-24T05:34:49;18.90;99.90
12013;DHT22;6065;48.138;16.402;2023-06-24T05:37:16;19.00;99.90
12013;DHT22;6065;48.138;16.402;2023-06-24T05:39:43;19.00;99.90
12013;DHT22;6065;48.138;16.402;2023-06-24T05:42:09;19.00;99.90
12013;DHT22;6065;48.138;16.402;2023-06-24T05:44:36;19.00;99.90
12013;DHT22;6065;48.138;16.402;2023-06-24T05:47:03;19.00;99.90
12013;DHT22;6065;48.138;16.402;2023-06-24T05:49:31;19.10;99.90
12013;DHT22;6065;48.138;16.402;2023-06-24T05:51:58;19.10;99.90
12013;DHT22;6065;48.138;16.402;2023-06-24T05:54:25;19.10;99.90
12013;DHT22;6065;48.138;16.402;2023-06-24T05:56:51;19.10;99.90
12013;DHT22;6065;48.138;16.402;2023-06-24T05:59:18;19.20;99.90
12013;DHT22;6065;48.138;16.402;2023-06-24T06:01:45;19.20;99.90
12013;DHT22;6065;48.138;16.402;2023-06-24T06:04:11;19.20;99.90
12013;DHT22;6065;48.138;16.402;2023-06-24T06:06:39;19.10;99.90
12013;DHT22;6065;48.138;16.402;2023-06-24T06:09:06;19.10;99.90
12013;DHT22;6065;48.138;16.402;2023-06-24T06:11:33;19.10;99.90
12013;DHT22;6065;48.138;16.402;2023-06-24T06:13:59;19.10;99.90
12013;DHT22;6065;48.138;16.402;2023-06-24T06:16:26;19.10;99.90
12013;DHT22;6065;48.138;16.402;2023-06-24T06:18:53;19.10;99.90
12013;DHT22;6065;48.138;16.402;2023-06-24T06:21:20;19.10;99.90
12013;DHT22;6065;48.138;16.402;2023-06-24T06:23:48;19.00;99.90
12013;DHT22;6065;48.138;16.402;2023-06-24T06:26:15;19.00;99.90
12013;DHT22;6065;48.138;16.402;2023-06-24T06:28:42;18.90;99.90
12013;DHT22;6065;48.138;16.402;2023-06-24T06:31:08;18.90;99.90
12013;DHT22;6065;48.138;16.402;2023-06-24T06:33:35;18.90;99.90
12013;DHT22;6065;48.138;16.402;2023-06-24T06:36:02;18.80;99.90
12013;DHT22;6065;48.138;16.402;2023-06-24T06:38:29;18.80;99.90
12013;DHT22;6065;48.138;16.402;2023-06-24T06:40:57;18.80;99.90
12013;DHT22;6065;48.138;16.402;2023-06-24T06:43:23;18.80;99.90
12013;DHT22;6065;48.138;16.402;2023-06-24T06:45:50;18.80;99.90
12013;DHT22;6065;48.138;16.402;2023-06-24T06:48:17;18.70;99.90
12013;DHT22;6065;48.138;16.402;2023-06-24T06:50:44;18.70;99.90
12013;DHT22;6065;48.138;16.402;2023-06-24T06:53:11;18.70;99.90
12013;DHT22;6065;48.138;16.402;2023-06-24T06:55:38;18.70;99.90
12013;DHT22;6065;48.138;16.402;2023-06-24T06:58:06;18.80;99.90
12013;DHT22;6065;48.138;16.402;2023-06-24T07:00:33;18.80;99.90
12013;DHT22;6065;48.138;16.402;2023-06-24T07:03:00;18.80;99.90
12013;DHT22;6065;48.138;16.402;2023-06-24T07:05:27;18.80;99.90
12013;DHT22;6065;48.138;16.402;2023-06-24T07:07:53;18.80;99.90
12013;DHT22;6065;48.138;16.402;2023-06-24T07:10:20;18.80;99.90
12013;DHT22;6065;48.138;16.402;2023-06-24T07:12:47;18.80;99.90
12013;DHT22;6065;48.138;16.402;2023-06-24T07:15:15;18.80;99.90
12013;DHT22;6065;48.138;16.402;2023-06-24T07:17:44;18.80;99.90
12013;DHT22;6065;48.138;16.402;2023-06-24T07:20:11;18.80;99.90
12013;DHT22;6065;48.138;16.402;2023-06-24T07:22:38;18.80;99.90
12013;DHT22;6065;48.138;16.402;2023-06-24T07:25:04;18.80;99.90
12013;DHT22;6065;48.138;16.402;2023-06-24T07:27:31;18.80;99.90
12013;DHT22;6065;48.138;16.402;2023-06-24T07:29:58;18.80;99.90
12013;DHT22;6065;48.138;16.402;2023-06-24T07:32:26;18.80;99.90
12013;DHT22;6065;48.138;16.402;2023-06-24T07:34:53;18.80;99.90
12013;DHT22;6065;48.138;16.402;2023-06-24T07:37:19;18.90;99.90
12013;DHT22;6065;48.138;16.402;2023-06-24T07:39:46;18.90;99.90
12013;DHT22;6065;48.138;16.402;2023-06-24T07:42:13;18.90;99.90
12013;DHT22;6065;48.138;16.402;2023-06-24T07:44:44;18.80;99.90
12013;DHT22;6065;48.138;16.402;2023-06-24T07:47:10;18.80;99.90
12013;DHT22;6065;48.138;16.402;2023-06-24T07:49:38;18.80;99.90
12013;DHT22;6065;48.138;16.402;2023-06-24T07:52:05;18.80;99.90
12013;DHT22;6065;48.138;16.402;2023-06-24T07:54:33;18.80;99.90
12013;DHT22;6065;48.138;16.402;2023-06-24T07:57:00;18.90;99.90
12013;DHT22;6065;48.138;16.402;2023-06-24T07:59:27;18.90;99.90
12013;DHT22;6065;48.138;16.402;2023-06-24T08:01:53;18.90;99.90
12013;DHT22;6065;48.138;16.402;2023-06-24T08:04:20;18.90;99.90
12013;DHT22;6065;48.138;16.402;2023-06-24T08:06:48;19.00;99.90
12013;DHT22;6065;48.138;16.402;2023-06-24T08:09:15;19.00;99.90
12013;DHT22;6065;48.138;16.402;2023-06-24T08:11:42;19.00;99.90
12013;DHT22;6065;48.138;16.402;2023-06-24T08:14:09;19.00;99.90
12013;DHT22;6065;48.138;16.402;2023-06-24T08:16:35;19.00;99.90
12013;DHT22;6065;48.138;16.402;2023-06-24T08:19:02;19.00;99.90
12013;DHT22;6065;48.138;16.402;2023-06-24T08:21:29;19.00;99.90
12013;DHT22;6065;48.138;16.402;2023-06-24T08:23:57;19.00;99.90
12013;DHT22;6065;48.138;16.402;2023-06-24T08:26:24;19.10;99.90
12013;DHT22;6065;48.138;16.402;2023-06-24T08:28:50;19.00;99.90
12013;DHT22;6065;48.138;16.402;2023-06-24T08:31:17;19.00;99.90
12013;DHT22;6065;48.138;16.402;2023-06-24T08:33:48;19.00;99.90
12013;DHT22;6065;48.138;16.402;2023-06-24T08:36:18;19.00;99.90
12013;DHT22;6065;48.138;16.402;2023-06-24T08:38:44;19.00;99.90
12013;DHT22;6065;48.138;16.402;2023-06-24T08:41:12;19.10;99.90
12013;DHT22;6065;48.138;16.402;2023-06-24T08:43:39;19.10;99.90
12013;DHT22;6065;48.138;16.402;2023-06-24T08:46:06;19.10;99.90
12013;DHT22;6065;48.138;16.402;2023-06-24T08:48:33;19.10;99.90
12013;DHT22;6065;48.138;16.402;2023-06-24T08:51:05;19.00;99.90
12013;DHT22;6065;48.138;16.402;2023-06-24T08:53:33;19.10;99.90
12013;DHT22;6065;48.138;16.402;2023-06-24T08:56:00;19.10;99.90
12013;DHT22;6065;48.138;16.402;2023-06-24T08:58:28;19.10;99.90
12013;DHT22;6065;48.138;16.402;2023-06-24T09:00:55;19.00;99.90
12013;DHT22;6065;48.138;16.402;2023-06-24T09:03:22;19.00;99.90
12013;DHT22;6065;48.138;16.402;2023-06-24T09:05:49;19.00;99.90
12013;DHT22;6065;48.138;16.402;2023-06-24T09:08:15;19.00;99.90
12013;DHT22;6065;48.138;16.402;2023-06-24T09:10:43;19.00;99.90
12013;DHT22;6065;48.138;16.402;2023-06-24T09:13:10;19.00;99.90
12013;DHT22;6065;48.138;16.402;2023-06-24T09:15:38;19.00;99.90
12013;DHT22;6065;48.138;16.402;2023-06-24T09:18:05;19.10;99.90
12013;DHT22;6065;48.138;16.402;2023-06-24T09:20:32;19.10;99.90
12013;DHT22;6065;48.138;16.402;2023-06-24T09:23:04;19.10;99.90
12013;DHT22;6065;48.138;16.402;2023-06-24T09:25:31;19.10;99.90
12013;DHT22;6065;48.138;16.402;2023-06-24T09:27:58;19.10;99.90
12013;DHT22;6065;48.138;16.402;2023-06-24T09:30:25;19.10;99.90
12013;DHT22;6065;48.138;16.402;2023-06-24T09:32:54;19.10;99.90
12013;DHT22;6065;48.138;16.402;2023-06-24T09:35:21;19.20;99.90
12013;DHT22;6065;48.138;16.402;2023-06-24T09:37:51;19.20;99.90
12013;DHT22;6065;48.138;16.402;2023-06-24T09:40:18;19.20;99.90
12013;DHT22;6065;48.138;16.402;2023-06-24T09:42:48;19.20;99.90
12013;DHT22;6065;48.138;16.402;2023-06-24T09:45:18;19.20;99.90
12013;DHT22;6065;48.138;16.402;2023-06-24T09:47:45;19.30;99.90
12013;DHT22;6065;48.138;16.402;2023-06-24T09:50:13;19.30;99.90
12013;DHT22;6065;48.138;16.402;2023-06-24T09:52:40;19.40;99.90
12013;DHT22;6065;48.138;16.402;2023-06-24T09:55:08;19.40;99.90
12013;DHT22;6065;48.138;16.402;2023-06-24T09:57:35;19.50;99.90
12013;DHT22;6065;48.138;16.402;2023-06-24T10:00:03;19.50;99.90
12013;DHT22;6065;48.138;16.402;2023-06-24T10:02:31;19.50;99.90
12013;DHT22;6065;48.138;16.402;2023-06-24T10:04:59;19.60;99.90
12013;DHT22;6065;48.138;16.402;2023-06-24T10:07:27;19.60;99.90
12013;DHT22;6065;48.138;16.402;2023-06-24T10:09:54;19.70;99.90
12013;DHT22;6065;48.138;16.402;2023-06-24T10:12:21;19.70;99.90
12013;DHT22;6065;48.138;16.402;2023-06-24T10:14:49;19.70;99.90
12013;DHT22;6065;48.138;16.402;2023-06-24T10:17:15;19.70;99.90
12013;DHT22;6065;48.138;16.402;2023-06-24T10:19:42;19.70;99.90
12013;DHT22;6065;48.138;16.402;2023-06-24T10:22:11;19.60;99.90
12013;DHT22;6065;48.138;16.402;2023-06-24T10:24:40;19.70;99.90
12013;DHT22;6065;48.138;16.402;2023-06-24T10:27:07;19.70;99.90
12013;DHT22;6065;48.138;16.402;2023-06-24T10:29:35;19.60;99.90
12013;DHT22;6065;48.138;16.402;2023-06-24T10:32:02;19.60;99.90
12013;DHT22;6065;48.138;16.402;2023-06-24T10:34:33;19.50;99.90
12013;DHT22;6065;48.138;16.402;2023-06-24T10:37:01;19.50;99.90
12013;DHT22;6065;48.138;16.402;2023-06-24T10:39:39;19.50;99.90
12013;DHT22;6065;48.138;16.402;2023-06-24T10:44:52;19.40;99.90
12013;DHT22;6065;48.138;16.402;2023-06-24T10:47:21;19.40;99.90
12013;DHT22;6065;48.138;16.402;2023-06-24T10:49:48;19.40;99.90
12013;DHT22;6065;48.138;16.402;2023-06-24T10:52:14;19.40;99.90
12013;DHT22;6065;48.138;16.402;2023-06-24T10:54:45;19.40;99.90
12013;DHT22;6065;48.138;16.402;2023-06-24T10:57:12;19.40;99.90
12013;DHT22;6065;48.138;16.402;2023-06-24T10:59:39;19.40;99.90
12013;DHT22;6065;48.138;16.402;2023-06-24T11:02:07;19.30;99.90
12013;DHT22;6065;48.138;16.402;2023-06-24T11:04:34;19.30;99.90
12013;DHT22;6065;48.138;16.402;2023-06-24T11:07:01;19.30;99.90
12013;DHT22;6065;48.138;16.402;2023-06-24T11:09:28;19.40;99.90
12013;DHT22;6065;48.138;16.402;2023-06-24T11:11:56;19.30;99.90
12013;DHT22;6065;48.138;16.402;2023-06-24T11:14:23;19.40;99.90
12013;DHT22;6065;48.138;16.402;2023-06-24T11:16:49;19.40;99.90
12013;DHT22;6065;48.138;16.402;2023-06-24T11:19:17;19.30;99.90
12013;DHT22;6065;48.138;16.402;2023-06-24T11:21:43;19.30;99.90
12013;DHT22;6065;48.138;16.402;2023-06-24T11:24:10;19.30;99.90
12013;DHT22;6065;48.138;16.402;2023-06-24T11:26:37;19.30;99.90
12013;DHT22;6065;48.138;16.402;2023-06-24T11:29:10;19.30;99.90
12013;DHT22;6065;48.138;16.402;2023-06-24T11:31:37;19.30;99.90
12013;DHT22;6065;48.138;16.402;2023-06-24T11:34:04;19.30;99.90
12013;DHT22;6065;48.138;16.402;2023-06-24T11:36:30;19.30;99.90
12013;DHT22;6065;48.138;16.402;2023-06-24T11:38:57;19.30;99.90
12013;DHT22;6065;48.138;16.402;2023-06-24T11:41:24;19.20;99.90
12013;DHT22;6065;48.138;16.402;2023-06-24T11:43:53;19.30;99.90
12013;DHT22;6065;48.138;16.402;2023-06-24T11:46:25;19.30;99.90
12013;DHT22;6065;48.138;16.402;2023-06-24T11:48:51;19.20;99.90
12013;DHT22;6065;48.138;16.402;2023-06-24T11:51:18;19.20;99.90
12013;DHT22;6065;48.138;16.402;2023-06-24T11:53:45;19.30;99.90
12013;DHT22;6065;48.138;16.402;2023-06-24T11:56:12;19.20;99.90
12013;DHT22;6065;48.138;16.402;2023-06-24T11:58:39;19.20;99.90
12013;DHT22;6065;48.138;16.402;2023-06-24T12:01:06;19.20;99.90
12013;DHT22;6065;48.138;16.402;2023-06-24T12:03:34;19.20;99.90
12013;DHT22;6065;48.138;16.402;2023-06-24T12:06:01;19.20;99.90
12013;DHT22;6065;48.138;16.402;2023-06-24T12:08:28;19.20;99.90
12013;DHT22;6065;48.138;16.402;2023-06-24T12:10:54;19.20;99.90
12013;DHT22;6065;48.138;16.402;2023-06-24T12:13:22;19.20;99.90
12013;DHT22;6065;48.138;16.402;2023-06-24T12:15:48;19.20;99.90
12013;DHT22;6065;48.138;16.402;2023-06-24T12:18:15;19.20;99.90
12013;DHT22;6065;48.138;16.402;2023-06-24T12:20:43;19.20;99.90
12013;DHT22;6065;48.138;16.402;2023-06-24T12:23:10;19.10;99.90
12013;DHT22;6065;48.138;16.402;2023-06-24T12:25:37;19.10;99.90
12013;DHT22;6065;48.138;16.402;2023-06-24T12:28:03;19.10;99.90
12013;DHT22;6065;48.138;16.402;2023-06-24T12:30:30;19.10;99.90
12013;DHT22;6065;48.138;16.402;2023-06-24T12:32:57;19.10;99.90
12013;DHT22;6065;48.138;16.402;2023-06-24T12:35:24;19.10;99.90
12013;DHT22;6065;48.138;16.402;2023-06-24T12:37:52;19.10;99.90
12013;DHT22;6065;48.138;16.402;2023-06-24T12:40:19;19.10;99.90
12013;DHT22;6065;48.138;16.402;2023-06-24T12:42:46;19.10;99.90
12013;DHT22;6065;48.138;16.402;2023-06-24T12:45:13;19.10;99.90
12013;DHT22;6065;48.138;16.402;2023-06-24T12:47:40;19.10;99.90
12013;DHT22;6065;48.138;16.402;2023-06-24T12:50:07;19.10;99.90
12013;DHT22;6065;48.138;16.402;2023-06-24T12:52:34;19.20;99.90
12013;DHT22;6065;48.138;16.402;2023-06-24T12:55:02;19.20;99.90
12013;DHT22;6065;48.138;16.402;2023-06-24T12:57:29;19.20;99.90
12013;DHT22;6065;48.138;16.402;2023-06-24T12:59:55;19.20;99.90
12013;DHT22;6065;48.138;16.402;2023-06-24T13:02:23;19.20;99.90
12013;DHT22;6065;48.138;16.402;2023-06-24T13:04:49;19.20;99.90
12013;DHT22;6065;48.138;16.402;2023-06-24T13:07:16;19.20;99.90
12013;DHT22;6065;48.138;16.402;2023-06-24T13:09:43;19.30;99.90
12013;DHT22;6065;48.138;16.402;2023-06-24T13:12:11;19.30;99.90
12013;DHT22;6065;48.138;16.402;2023-06-24T13:14:37;19.20;99.90
12013;DHT22;6065;48.138;16.402;2023-06-24T13:17:04;19.20;99.90
12013;DHT22;6065;48.138;16.402;2023-06-24T13:19:31;19.30;99.90
12013;DHT22;6065;48.138;16.402;2023-06-24T13:21:58;19.30;99.90
12013;DHT22;6065;48.138;16.402;2023-06-24T13:24:25;19.40;99.90
12013;DHT22;6065;48.138;16.402;2023-06-24T13:26:52;19.30;99.90
12013;DHT22;6065;48.138;16.402;2023-06-24T13:29:20;19.30;99.90
12013;DHT22;6065;48.138;16.402;2023-06-24T13:31:46;19.30;99.90
12013;DHT22;6065;48.138;16.402;2023-06-24T13:34:13;19.30;99.90
12013;DHT22;6065;48.138;16.402;2023-06-24T13:36:40;19.30;99.90
12013;DHT22;6065;48.138;16.402;2023-06-24T13:39:07;19.30;99.90
12013;DHT22;6065;48.138;16.402;2023-06-24T13:41:36;19.40;99.90
12013;DHT22;6065;48.138;16.402;2023-06-24T13:44:03;19.40;99.90
12013;DHT22;6065;48.138;16.402;2023-06-24T13:46:31;19.30;99.90
12013;DHT22;6065;48.138;16.402;2023-06-24T13:48:59;19.40;99.90
12013;DHT22;6065;48.138;16.402;2023-06-24T13:51:25;19.50;99.90
12013;DHT22;6065;48.138;16.402;2023-06-24T13:53:53;19.50;99.90
12013;DHT22;6065;48.138;16.402;2023-06-24T13:56:20;19.50;99.90
12013;DHT22;6065;48.138;16.402;2023-06-24T13:58:47;19.60;99.90
12013;DHT22;6065;48.138;16.402;2023-06-24T14:01:14;19.70;99.90
12013;DHT22;6065;48.138;16.402;2023-06-24T14:03:43;19.70;99.90
12013;DHT22;6065;48.138;16.402;2023-06-24T14:06:13;19.70;99.90
12013;DHT22;6065;48.138;16.402;2023-06-24T14:08:40;19.70;99.90
12013;DHT22;6065;48.138;16.402;2023-06-24T14:11:07;19.70;99.90
12013;DHT22;6065;48.138;16.402;2023-06-24T14:13:34;19.70;99.90
12013;DHT22;6065;48.138;16.402;2023-06-24T14:16:01;19.70;99.90
12013;DHT22;6065;48.138;16.402;2023-06-24T14:18:28;19.70;99.90
12013;DHT22;6065;48.138;16.402;2023-06-24T14:20:58;19.70;99.90
12013;DHT22;6065;48.138;16.402;2023-06-24T14:23:25;19.70;99.90
12013;DHT22;6065;48.138;16.402;2023-06-24T14:25:52;19.70;99.90
12013;DHT22;6065;48.138;16.402;2023-06-24T14:28:19;19.70;99.90
12013;DHT22;6065;48.138;16.402;2023-06-24T14:30:46;19.80;99.90
12013;DHT22;6065;48.138;16.402;2023-06-24T14:33:13;19.80;99.90
12013;DHT22;6065;48.138;16.402;2023-06-24T14:35:40;19.80;99.90
12013;DHT22;6065;48.138;16.402;2023-06-24T14:38:08;19.80;99.90
12013;DHT22;6065;48.138;16.402;2023-06-24T14:40:34;19.80;99.90
12013;DHT22;6065;48.138;16.402;2023-06-24T14:43:01;19.90;99.90
12013;DHT22;6065;48.138;16.402;2023-06-24T14:45:28;19.90;99.90
12013;DHT22;6065;48.138;16.402;2023-06-24T14:47:54;19.90;99.90
12013;DHT22;6065;48.138;16.402;2023-06-24T14:50:22;20.00;99.90
12013;DHT22;6065;48.138;16.402;2023-06-24T14:52:49;20.00;99.90
12013;DHT22;6065;48.138;16.402;2023-06-24T14:55:17;20.00;99.90
12013;DHT22;6065;48.138;16.402;2023-06-24T14:57:44;20.00;99.90
12013;DHT22;6065;48.138;16.402;2023-06-24T15:00:11;20.00;99.90
12013;DHT22;6065;48.138;16.402;2023-06-24T15:02:37;20.00;99.90
12013;DHT22;6065;48.138;16.402;2023-06-24T15:05:04;20.00;99.90
12013;DHT22;6065;48.138;16.402;2023-06-24T15:07:31;20.00;99.90
12013;DHT22;6065;48.138;16.402;2023-06-24T15:09:58;20.00;99.90
12013;DHT22;6065;48.138;16.402;2023-06-24T15:12:26;20.00;99.90
12013;DHT22;6065;48.138;16.402;2023-06-24T15:14:52;20.00;99.90
12013;DHT22;6065;48.138;16.402;2023-06-24T15:17:19;20.00;99.90
12013;DHT22;6065;48.138;16.402;2023-06-24T15:19:46;20.00;99.90
12013;DHT22;6065;48.138;16.402;2023-06-24T15:22:13;20.00;99.90
12013;DHT22;6065;48.138;16.402;2023-06-24T15:24:39;20.10;99.90
12013;DHT22;6065;48.138;16.402;2023-06-24T15:27:06;20.10;99.90
12013;DHT22;6065;48.138;16.402;2023-06-24T15:29:34;20.10;99.90
12013;DHT22;6065;48.138;16.402;2023-06-24T15:32:01;20.10;99.90
12013;DHT22;6065;48.138;16.402;2023-06-24T15:34:27;20.10;99.90
12013;DHT22;6065;48.138;16.402;2023-06-24T15:36:54;20.10;99.90